Axis, Alabama
Current Conditions -  °F | °C
As of 2:53 AM on Sunday 21 Dec 2014 (Local Time) from KBFM Reporting Station
Overcast Overcast  
Wind Chill: 52°   Ceiling: 700
Heat Index: 52°   Visibility: 10mi
Dew Point: 49°   Wind: 6mph
Humidity: 89%   Direction: 360°N
Pressure: 30.14"   Gusts: NA
Location:  30.93°N, 88.03°W
Report Text: KBFM 210853Z AUTO 36005KT 10SM OVC007 11/09 A3014 RMK AO2 SLP207 T01110094 56004
Loading
Personal Weather Stations






























Interactive Weather Map New forecast layout! Learn more

10-Day Weather Forecast

Advertisements
Track Severe Weather on mobile